sensor_id;sensor_type;location;lat;lon;timestamp;pressure;altitude;pressure_sealevel;temperature;humidity
63006;BME280;53704;52.532;6.426;2023-04-07T00:00:25;101399.22;;;6.76;100.00
63006;BME280;53704;52.532;6.426;2023-04-07T00:02:51;101391.56;;;6.72;100.00
63006;BME280;53704;52.532;6.426;2023-04-07T00:05:16;101392.38;;;6.95;100.00
63006;BME280;53704;52.532;6.426;2023-04-07T00:07:42;101393.38;;;6.82;100.00
63006;BME280;53704;52.532;6.426;2023-04-07T00:10:07;101394.38;;;6.70;100.00
63006;BME280;53704;52.532;6.426;2023-04-07T00:12:36;101391.50;;;6.50;100.00
63006;BME280;53704;52.532;6.426;2023-04-07T00:15:01;101401.94;;;6.65;100.00
63006;BME280;53704;52.532;6.426;2023-04-07T00:17:27;101395.88;;;6.63;100.00
63006;BME280;53704;52.532;6.426;2023-04-07T00:19:52;101394.88;;;6.64;100.00
63006;BME280;53704;52.532;6.426;2023-04-07T00:22:18;101395.88;;;6.63;100.00
63006;BME280;53704;52.532;6.426;2023-04-07T00:24:43;101389.66;;;6.74;100.00
63006;BME280;53704;52.532;6.426;2023-04-07T00:27:09;101391.84;;;6.57;100.00
63006;BME280;53704;52.532;6.426;2023-04-07T00:29:34;101394.72;;;6.77;100.00
63006;BME280;53704;52.532;6.426;2023-04-07T00:32:00;101397.16;;;6.80;100.00
63006;BME280;53704;52.532;6.426;2023-04-07T00:34:26;101397.28;;;6.78;100.00
63006;BME280;53704;52.532;6.426;2023-04-07T00:36:51;101391.19;;;6.87;100.00
63006;BME280;53704;52.532;6.426;2023-04-07T00:39:17;101390.41;;;6.97;100.00
63006;BME280;53704;52.532;6.426;2023-04-07T00:41:43;101386.03;;;7.07;100.00
63006;BME280;53704;52.532;6.426;2023-04-07T00:44:09;101391.31;;;7.18;100.00
63006;BME280;53704;52.532;6.426;2023-04-07T00:46:37;101384.31;;;7.06;100.00
63006;BME280;53704;52.532;6.426;2023-04-07T00:49:03;101384.19;;;7.07;100.00
63006;BME280;53704;52.532;6.426;2023-04-07T00:51:28;101389.25;;;6.78;100.00
63006;BME280;53704;52.532;6.426;2023-04-07T00:53:54;101389.66;;;7.06;100.00
63006;BME280;53704;52.532;6.426;2023-04-07T00:56:20;101390.16;;;7.00;100.00
63006;BME280;53704;52.532;6.426;2023-04-07T00:58:45;101383.75;;;6.91;100.00
63006;BME280;53704;52.532;6.426;2023-04-07T01:01:15;101383.34;;;6.96;100.00
63006;BME280;53704;52.532;6.426;2023-04-07T01:03:57;101384.47;;;6.93;100.00
63006;BME280;53704;52.532;6.426;2023-04-07T01:06:29;101388.41;;;6.78;100.00
63006;BME280;53704;52.532;6.426;2023-04-07T01:09:06;101394.16;;;6.62;100.00
63006;BME280;53704;52.532;6.426;2023-04-07T01:11:42;101397.31;;;6.67;100.00
63006;BME280;53704;52.532;6.426;2023-04-07T01:14:09;101392.56;;;6.59;100.00
63006;BME280;53704;52.532;6.426;2023-04-07T01:16:45;101390.97;;;6.79;100.00
63006;BME280;53704;52.532;6.426;2023-04-07T01:19:13;101388.69;;;6.63;100.00
63006;BME280;53704;52.532;6.426;2023-04-07T01:21:42;101385.97;;;6.75;100.00
63006;BME280;53704;52.532;6.426;2023-04-07T01:26:54;101384.13;;;6.86;100.00
63006;BME280;53704;52.532;6.426;2023-04-07T01:29:33;101382.47;;;7.06;100.00
63006;BME280;53704;52.532;6.426;2023-04-07T01:32:03;101385.69;;;6.89;100.00
63006;BME280;53704;52.532;6.426;2023-04-07T01:34:31;101381.38;;;7.09;100.00
63006;BME280;53704;52.532;6.426;2023-04-07T01:36:58;101389.25;;;6.78;100.00
63006;BME280;53704;52.532;6.426;2023-04-07T01:39:27;101381.22;;;6.90;100.00
63006;BME280;53704;52.532;6.426;2023-04-07T01:41:53;101385.19;;;6.95;100.00
63006;BME280;53704;52.532;6.426;2023-04-07T01:44:19;101391.56;;;6.83;100.00
63006;BME280;53704;52.532;6.426;2023-04-07T01:46:46;101380.31;;;7.00;100.00
63006;BME280;53704;52.532;6.426;2023-04-07T01:49:12;101388.00;;;6.94;100.00
63006;BME280;53704;52.532;6.426;2023-04-07T01:51:39;101393.44;;;7.03;100.00
63006;BME280;53704;52.532;6.426;2023-04-07T01:54:05;101393.69;;;7.12;100.00
63006;BME280;53704;52.532;6.426;2023-04-07T01:56:32;101391.50;;;7.05;100.00
63006;BME280;53704;52.532;6.426;2023-04-07T01:58:57;101390.03;;;7.01;100.00
63006;BME280;53704;52.532;6.426;2023-04-07T02:01:23;101393.22;;;6.95;100.00
63006;BME280;53704;52.532;6.426;2023-04-07T02:04:05;101388.78;;;7.17;100.00
63006;BME280;53704;52.532;6.426;2023-04-07T02:06:40;101391.06;;;7.21;100.00
63006;BME280;53704;52.532;6.426;2023-04-07T02:09:09;101390.81;;;7.24;100.00
63006;BME280;53704;52.532;6.426;2023-04-07T02:11:36;101387.13;;;7.37;100.00
63006;BME280;53704;52.532;6.426;2023-04-07T02:14:03;101389.25;;;7.22;100.00
63006;BME280;53704;52.532;6.426;2023-04-07T02:16:31;101394.38;;;7.14;100.00
63006;BME280;53704;52.532;6.426;2023-04-07T02:18:58;101395.28;;;7.35;100.00
63006;BME280;53704;52.532;6.426;2023-04-07T02:21:25;101400.28;;;7.29;100.00
63006;BME280;53704;52.532;6.426;2023-04-07T02:23:51;101395.47;;;7.43;100.00
63006;BME280;53704;52.532;6.426;2023-04-07T02:26:17;101400.84;;;7.43;100.00
63006;BME280;53704;52.532;6.426;2023-04-07T02:28:42;101390.19;;;7.32;100.00
63006;BME280;53704;52.532;6.426;2023-04-07T02:31:07;101394.06;;;7.07;100.00
63006;BME280;53704;52.532;6.426;2023-04-07T02:33:33;101396.19;;;7.24;100.00
63006;BME280;53704;52.532;6.426;2023-04-07T02:35:58;101398.66;;;7.05;100.00
63006;BME280;53704;52.532;6.426;2023-04-07T02:38:24;101398.28;;;7.10;100.00
63006;BME280;53704;52.532;6.426;2023-04-07T02:40:50;101396.34;;;7.12;100.00
63006;BME280;53704;52.532;6.426;2023-04-07T02:43:15;101405.94;;;7.14;100.00
63006;BME280;53704;52.532;6.426;2023-04-07T02:45:42;101402.59;;;7.01;100.00
63006;BME280;53704;52.532;6.426;2023-04-07T02:48:07;101404.34;;;7.44;100.00
63006;BME280;53704;52.532;6.426;2023-04-07T02:50:32;101405.22;;;7.12;100.00
63006;BME280;53704;52.532;6.426;2023-04-07T02:52:58;101403.69;;;7.31;100.00
63006;BME280;53704;52.532;6.426;2023-04-07T02:55:23;101410.00;;;7.09;100.00
63006;BME280;53704;52.532;6.426;2023-04-07T02:57:49;101402.53;;;7.12;100.00
63006;BME280;53704;52.532;6.426;2023-04-07T03:00:14;101408.81;;;6.90;100.00
63006;BME280;53704;52.532;6.426;2023-04-07T03:02:40;101407.94;;;7.33;100.00
63006;BME280;53704;52.532;6.426;2023-04-07T03:05:06;101402.38;;;7.46;100.00
63006;BME280;53704;52.532;6.426;2023-04-07T03:07:31;101406.75;;;7.26;100.00
63006;BME280;53704;52.532;6.426;2023-04-07T03:09:57;101406.25;;;7.32;100.00
63006;BME280;53704;52.532;6.426;2023-04-07T03:12:22;101410.41;;;7.25;100.00
63006;BME280;53704;52.532;6.426;2023-04-07T03:14:47;101404.88;;;7.38;100.00
63006;BME280;53704;52.532;6.426;2023-04-07T03:17:13;101405.56;;;7.51;100.00
63006;BME280;53704;52.532;6.426;2023-04-07T03:19:38;101411.00;;;7.29;100.00
63006;BME280;53704;52.532;6.426;2023-04-07T03:22:03;101409.06;;;7.31;100.00
63006;BME280;53704;52.532;6.426;2023-04-07T03:24:29;101407.75;;;7.46;100.00
63006;BME280;53704;52.532;6.426;2023-04-07T03:26:54;101401.56;;;7.46;100.00
63006;BME280;53704;52.532;6.426;2023-04-07T03:29:20;101405.94;;;7.47;100.00
63006;BME280;53704;52.532;6.426;2023-04-07T03:31:47;101404.03;;;7.37;100.00
63006;BME280;53704;52.532;6.426;2023-04-07T03:34:13;101409.91;;;7.31;100.00
63006;BME280;53704;52.532;6.426;2023-04-07T03:36:38;101410.22;;;7.38;100.00
63006;BME280;53704;52.532;6.426;2023-04-07T03:39:04;101410.81;;;7.41;100.00
63006;BME280;53704;52.532;6.426;2023-04-07T03:41:30;101415.59;;;7.38;100.00
63006;BME280;53704;52.532;6.426;2023-04-07T03:43:56;101408.69;;;7.24;100.00
63006;BME280;53704;52.532;6.426;2023-04-07T03:46:22;101406.06;;;7.45;100.00
63006;BME280;53704;52.532;6.426;2023-04-07T03:48:47;101412.06;;;7.58;100.00
63006;BME280;53704;52.532;6.426;2023-04-07T03:51:14;101409.66;;;7.34;100.00
63006;BME280;53704;52.532;6.426;2023-04-07T03:53:40;101414.06;;;7.24;100.00
63006;BME280;53704;52.532;6.426;2023-04-07T03:56:05;101416.84;;;6.90;100.00
63006;BME280;53704;52.532;6.426;2023-04-07T03:58:31;101413.03;;;7.04;100.00
63006;BME280;53704;52.532;6.426;2023-04-07T04:00:56;101418.81;;;7.20;100.00
63006;BME280;53704;52.532;6.426;2023-04-07T04:03:22;101416.28;;;7.40;100.00
63006;BME280;53704;52.532;6.426;2023-04-07T04:05:47;101423.03;;;6.91;100.00
63006;BME280;53704;52.532;6.426;2023-04-07T04:08:12;101427.81;;;6.87;100.00
63006;BME280;53704;52.532;6.426;2023-04-07T04:10:38;101433.84;;;7.12;100.00
63006;BME280;53704;52.532;6.426;2023-04-07T04:13:03;101426.13;;;7.18;100.00
63006;BME280;53704;52.532;6.426;2023-04-07T04:15:31;101428.19;;;7.26;100.00
63006;BME280;53704;52.532;6.426;2023-04-07T04:17:56;101431.03;;;7.02;100.00
63006;BME280;53704;52.532;6.426;2023-04-07T04:20:22;101429.41;;;7.22;100.00
63006;BME280;53704;52.532;6.426;2023-04-07T04:22:47;101438.63;;;6.85;100.00
63006;BME280;53704;52.532;6.426;2023-04-07T04:25:13;101440.03;;;7.12;100.00
63006;BME280;53704;52.532;6.426;2023-04-07T04:27:39;101434.63;;;7.23;100.00
63006;BME280;53704;52.532;6.426;2023-04-07T04:30:05;101438.13;;;7.35;100.00
63006;BME280;53704;52.532;6.426;2023-04-07T04:32:31;101439.22;;;7.33;100.00
63006;BME280;53704;52.532;6.426;2023-04-07T04:34:56;101448.28;;;7.20;100.00
63006;BME280;53704;52.532;6.426;2023-04-07T04:37:22;101443.81;;;7.10;100.00
63006;BME280;53704;52.532;6.426;2023-04-07T04:39:47;101443.88;;;7.31;100.00
63006;BME280;53704;52.532;6.426;2023-04-07T04:42:13;101449.25;;;7.19;100.00
63006;BME280;53704;52.532;6.426;2023-04-07T04:44:38;101439.56;;;7.39;100.00
63006;BME280;53704;52.532;6.426;2023-04-07T04:47:03;101441.03;;;7.43;100.00
63006;BME280;53704;52.532;6.426;2023-04-07T04:49:29;101443.00;;;7.30;100.00
63006;BME280;53704;52.532;6.426;2023-04-07T04:51:55;101447.56;;;7.18;100.00
63006;BME280;53704;52.532;6.426;2023-04-07T04:54:21;101448.19;;;7.11;100.00
63006;BME280;53704;52.532;6.426;2023-04-07T04:56:46;101449.53;;;7.05;100.00
63006;BME280;53704;52.532;6.426;2023-04-07T04:59:12;101454.66;;;6.97;100.00
63006;BME280;53704;52.532;6.426;2023-04-07T05:01:37;101462.16;;;7.14;100.00
63006;BME280;53704;52.532;6.426;2023-04-07T05:04:03;101458.56;;;7.04;100.00
63006;BME280;53704;52.532;6.426;2023-04-07T05:06:28;101460.16;;;7.39;100.00
63006;BME280;53704;52.532;6.426;2023-04-07T05:08:53;101467.38;;;7.27;100.00
63006;BME280;53704;52.532;6.426;2023-04-07T05:11:20;101467.19;;;7.07;100.00
63006;BME280;53704;52.532;6.426;2023-04-07T05:13:46;101473.13;;;7.11;100.00
63006;BME280;53704;52.532;6.426;2023-04-07T05:16:11;101475.00;;;6.77;100.00
63006;BME280;53704;52.532;6.426;2023-04-07T05:18:37;101480.75;;;6.83;100.00
63006;BME280;53704;52.532;6.426;2023-04-07T05:21:02;101479.63;;;6.86;100.00
63006;BME280;53704;52.532;6.426;2023-04-07T05:23:28;101489.22;;;7.00;100.00
63006;BME280;53704;52.532;6.426;2023-04-07T05:25:53;101478.28;;;6.92;100.00
63006;BME280;53704;52.532;6.426;2023-04-07T05:28:19;101482.97;;;7.22;100.00
63006;BME280;53704;52.532;6.426;2023-04-07T05:30:44;101483.13;;;7.41;100.00
63006;BME280;53704;52.532;6.426;2023-04-07T05:33:10;101482.38;;;7.51;100.00
63006;BME280;53704;52.532;6.426;2023-04-07T05:35:35;101485.94;;;7.07;100.00
63006;BME280;53704;52.532;6.426;2023-04-07T05:38:01;101495.16;;;7.15;100.00
63006;BME280;53704;52.532;6.426;2023-04-07T05:40:27;101493.38;;;7.04;100.00
63006;BME280;53704;52.532;6.426;2023-04-07T05:42:55;101496.28;;;7.01;100.00
63006;BME280;53704;52.532;6.426;2023-04-07T05:45:20;101500.06;;;6.98;100.00
63006;BME280;53704;52.532;6.426;2023-04-07T05:47:46;101504.34;;;6.90;100.00
63006;BME280;53704;52.532;6.426;2023-04-07T05:50:14;101503.34;;;7.13;100.00
63006;BME280;53704;52.532;6.426;2023-04-07T05:52:40;101508.59;;;6.81;100.00
63006;BME280;53704;52.532;6.426;2023-04-07T05:55:06;101500.91;;;6.87;100.00
63006;BME280;53704;52.532;6.426;2023-04-07T05:57:31;101509.66;;;6.78;100.00
63006;BME280;53704;52.532;6.426;2023-04-07T05:59:57;101513.84;;;6.60;100.00
63006;BME280;53704;52.532;6.426;2023-04-07T06:02:23;101507.75;;;6.80;100.00
63006;BME280;53704;52.532;6.426;2023-04-07T06:04:48;101513.72;;;6.73;100.00
63006;BME280;53704;52.532;6.426;2023-04-07T06:07:14;101512.63;;;6.86;100.00
63006;BME280;53704;52.532;6.426;2023-04-07T06:09:39;101520.50;;;6.77;100.00
63006;BME280;53704;52.532;6.426;2023-04-07T06:12:07;101520.13;;;6.81;100.00
63006;BME280;53704;52.532;6.426;2023-04-07T06:14:33;101515.53;;;6.72;100.00
63006;BME280;53704;52.532;6.426;2023-04-07T06:16:59;101521.50;;;6.76;100.00
63006;BME280;53704;52.532;6.426;2023-04-07T06:19:28;101526.84;;;6.87;100.00
63006;BME280;53704;52.532;6.426;2023-04-07T06:21:53;101525.63;;;7.02;100.00
63006;BME280;53704;52.532;6.426;2023-04-07T06:24:19;101522.53;;;7.18;100.00
63006;BME280;53704;52.532;6.426;2023-04-07T06:26:47;101528.88;;;7.17;100.00
63006;BME280;53704;52.532;6.426;2023-04-07T06:29:12;101533.13;;;6.97;100.00
63006;BME280;53704;52.532;6.426;2023-04-07T06:31:38;101534.88;;;6.87;100.00
63006;BME280;53704;52.532;6.426;2023-04-07T06:34:03;101532.56;;;6.82;100.00
63006;BME280;53704;52.532;6.426;2023-04-07T06:36:29;101530.47;;;6.75;100.00
63006;BME280;53704;52.532;6.426;2023-04-07T06:38:54;101537.44;;;6.66;100.00
63006;BME280;53704;52.532;6.426;2023-04-07T06:41:20;101536.94;;;6.72;100.00
63006;BME280;53704;52.532;6.426;2023-04-07T06:43:48;101542.31;;;6.72;100.00
63006;BME280;53704;52.532;6.426;2023-04-07T06:46:16;101542.31;;;6.72;100.00
63006;BME280;53704;52.532;6.426;2023-04-07T06:48:41;101543.00;;;6.85;100.00
63006;BME280;53704;52.532;6.426;2023-04-07T06:51:07;101547.03;;;6.80;100.00
63006;BME280;53704;52.532;6.426;2023-04-07T06:53:32;101549.69;;;6.80;100.00
63006;BME280;53704;52.532;6.426;2023-04-07T06:56:10;101554.94;;;6.70;100.00
63006;BME280;53704;52.532;6.426;2023-04-07T06:58:36;101555.28;;;6.77;100.00
63006;BME280;53704;52.532;6.426;2023-04-07T07:01:03;101563.09;;;6.91;100.00
63006;BME280;53704;52.532;6.426;2023-04-07T07:03:29;101558.84;;;6.88;100.00
63006;BME280;53704;52.532;6.426;2023-04-07T07:05:58;101565.13;;;6.99;100.00
63006;BME280;53704;52.532;6.426;2023-04-07T07:08:25;101561.38;;;6.67;100.00
63006;BME280;53704;52.532;6.426;2023-04-07T07:10:51;101558.09;;;6.64;100.00
63006;BME280;53704;52.532;6.426;2023-04-07T07:13:18;101568.06;;;6.73;100.00
63006;BME280;53704;52.532;6.426;2023-04-07T07:15:44;101563.56;;;6.62;100.00
63006;BME280;53704;52.532;6.426;2023-04-07T07:18:10;101573.41;;;6.96;100.00
63006;BME280;53704;52.532;6.426;2023-04-07T07:20:36;101568.81;;;6.86;100.00
63006;BME280;53704;52.532;6.426;2023-04-07T07:23:01;101568.06;;;6.73;100.00
63006;BME280;53704;52.532;6.426;2023-04-07T07:25:26;101575.72;;;6.78;100.00
63006;BME280;53704;52.532;6.426;2023-04-07T07:27:52;101579.75;;;6.83;100.00
63006;BME280;53704;52.532;6.426;2023-04-07T07:30:21;101584.47;;;6.68;100.00
63006;BME280;53704;52.532;6.426;2023-04-07T07:32:47;101586.81;;;6.84;100.00
63006;BME280;53704;52.532;6.426;2023-04-07T07:35:13;101593.75;;;7.10;100.00
63006;BME280;53704;52.532;6.426;2023-04-07T07:37:38;101593.75;;;7.10;100.00
63006;BME280;53704;52.532;6.426;2023-04-07T07:40:04;101591.94;;;7.10;100.00
63006;BME280;53704;52.532;6.426;2023-04-07T07:42:30;101595.81;;;6.83;100.00
63006;BME280;53704;52.532;6.426;2023-04-07T07:44:56;101600.81;;;6.88;100.00
63006;BME280;53704;52.532;6.426;2023-04-07T07:47:22;101605.28;;;6.87;100.00
63006;BME280;53704;52.532;6.426;2023-04-07T07:49:47;101610.75;;;6.75;100.00
63006;BME280;53704;52.532;6.426;2023-04-07T07:52:13;101611.16;;;7.04;100.00
63006;BME280;53704;52.532;6.426;2023-04-07T07:54:39;101609.56;;;7.13;100.00
63006;BME280;53704;52.532;6.426;2023-04-07T07:57:04;101613.25;;;7.12;100.00
63006;BME280;53704;52.532;6.426;2023-04-07T07:59:30;101619.06;;;7.05;100.00
63006;BME280;53704;52.532;6.426;2023-04-07T08:01:56;101626.94;;;6.84;100.00
63006;BME280;53704;52.532;6.426;2023-04-07T08:04:21;101625.50;;;7.25;100.00
63006;BME280;53704;52.532;6.426;2023-04-07T08:06:48;101627.22;;;7.27;100.00
63006;BME280;53704;52.532;6.426;2023-04-07T08:09:14;101631.84;;;7.36;100.00
63006;BME280;53704;52.532;6.426;2023-04-07T08:11:40;101627.69;;;7.32;100.00
63006;BME280;53704;52.532;6.426;2023-04-07T08:14:06;101638.41;;;7.32;100.00
63006;BME280;53704;52.532;6.426;2023-04-07T08:16:31;101633.53;;;7.48;100.00
63006;BME280;53704;52.532;6.426;2023-04-07T08:18:56;101635.84;;;7.41;100.00
63006;BME280;53704;52.532;6.426;2023-04-07T08:21:22;101640.34;;;7.52;100.00
63006;BME280;53704;52.532;6.426;2023-04-07T08:23:47;101639.38;;;7.53;100.00
63006;BME280;53704;52.532;6.426;2023-04-07T08:26:13;101640.06;;;7.67;100.00
63006;BME280;53704;52.532;6.426;2023-04-07T08:28:38;101636.50;;;7.77;100.00
63006;BME280;53704;52.532;6.426;2023-04-07T08:31:04;101641.78;;;7.68;100.00
63006;BME280;53704;52.532;6.426;2023-04-07T08:33:29;101648.41;;;7.96;100.00
63006;BME280;53704;52.532;6.426;2023-04-07T08:35:55;101641.22;;;7.96;100.00
63006;BME280;53704;52.532;6.426;2023-04-07T08:38:21;101650.00;;;7.99;100.00
63006;BME280;53704;52.532;6.426;2023-04-07T08:40:49;101647.09;;;8.23;100.00
63006;BME280;53704;52.532;6.426;2023-04-07T08:43:19;101650.03;;;8.20;100.00
63006;BME280;53704;52.532;6.426;2023-04-07T08:45:45;101652.63;;;8.10;100.00
63006;BME280;53704;52.532;6.426;2023-04-07T08:48:16;101646.03;;;8.46;100.00
63006;BME280;53704;52.532;6.426;2023-04-07T08:50:45;101653.66;;;8.62;100.00
63006;BME280;53704;52.532;6.426;2023-04-07T08:53:16;101659.59;;;8.66;100.00
63006;BME280;53704;52.532;6.426;2023-04-07T08:55:43;101660.31;;;8.68;100.00
63006;BME280;53704;52.532;6.426;2023-04-07T08:58:09;101662.47;;;8.74;100.00
63006;BME280;53704;52.532;6.426;2023-04-07T09:00:39;101660.03;;;8.50;100.00
63006;BME280;53704;52.532;6.426;2023-04-07T09:03:07;101667.66;;;8.66;100.00
63006;BME280;53704;52.532;6.426;2023-04-07T09:05:33;101660.84;;;8.62;100.00
63006;BME280;53704;52.532;6.426;2023-04-07T09:08:01;101664.31;;;8.74;100.00
63006;BME280;53704;52.532;6.426;2023-04-07T09:10:27;101665.16;;;8.95;100.00
63006;BME280;53704;52.532;6.426;2023-04-07T09:12:53;101676.25;;;8.81;100.00
63006;BME280;53704;52.532;6.426;2023-04-07T09:15:19;101670.63;;;9.15;100.00
63006;BME280;53704;52.532;6.426;2023-04-07T09:17:44;101661.09;;;9.32;100.00
63006;BME280;53704;52.532;6.426;2023-04-07T09:20:10;101672.53;;;9.65;100.00
63006;BME280;53704;52.532;6.426;2023-04-07T09:22:43;101672.16;;;9.48;100.00
63006;BME280;53704;52.532;6.426;2023-04-07T09:25:18;101675.06;;;9.66;100.00
63006;BME280;53704;52.532;6.426;2023-04-07T09:28:03;101685.69;;;9.68;100.00
63006;BME280;53704;52.532;6.426;2023-04-07T09:30:30;101668.56;;;9.69;100.00
63006;BME280;53704;52.532;6.426;2023-04-07T09:32:57;101672.94;;;9.60;100.00
63006;BME280;53704;52.532;6.426;2023-04-07T09:35:23;101678.63;;;9.76;100.00
63006;BME280;53704;52.532;6.426;2023-04-07T09:40:28;101671.31;;;9.38;100.00
63006;BME280;53704;52.532;6.426;2023-04-07T09:42:54;101674.84;;;9.89;100.00
63006;BME280;53704;52.532;6.426;2023-04-07T09:45:24;101675.91;;;9.67;100.00
63006;BME280;53704;52.532;6.426;2023-04-07T09:47:50;101677.50;;;9.38;100.00
63006;BME280;53704;52.532;6.426;2023-04-07T09:50:29;101680.88;;;9.71;100.00
63006;BME280;53704;52.532;6.426;2023-04-07T09:52:55;101684.63;;;9.90;100.00
63006;BME280;53704;52.532;6.426;2023-04-07T09:55:22;101685.03;;;9.45;100.00
63006;BME280;53704;52.532;6.426;2023-04-07T09:57:49;101688.28;;;9.48;100.00
63006;BME280;53704;52.532;6.426;2023-04-07T10:00:15;101682.88;;;9.38;100.00
63006;BME280;53704;52.532;6.426;2023-04-07T10:02:41;101688.78;;;9.63;100.00
63006;BME280;53704;52.532;6.426;2023-04-07T10:05:07;101688.13;;;9.40;100.00
63006;BME280;53704;52.532;6.426;2023-04-07T10:07:34;101693.53;;;9.50;100.00
63006;BME280;53704;52.532;6.426;2023-04-07T10:09:59;101692.84;;;9.48;100.00
63006;BME280;53704;52.532;6.426;2023-04-07T10:12:26;101695.94;;;9.84;100.00
63006;BME280;53704;52.532;6.426;2023-04-07T10:14:51;101700.84;;;9.78;100.00
63006;BME280;53704;52.532;6.426;2023-04-07T10:17:18;101697.94;;;9.51;100.00
63006;BME280;53704;52.532;6.426;2023-04-07T10:19:45;101700.09;;;9.57;100.00
63006;BME280;53704;52.532;6.426;2023-04-07T10:22:13;101701.91;;;9.56;100.00
63006;BME280;53704;52.532;6.426;2023-04-07T10:24:52;101705.13;;;9.50;100.00
63006;BME280;53704;52.532;6.426;2023-04-07T10:27:32;101709.84;;;9.58;100.00
63006;BME280;53704;52.532;6.426;2023-04-07T10:29:59;101713.00;;;9.32;100.00
63006;BME280;53704;52.532;6.426;2023-04-07T10:32:25;101718.75;;;9.28;100.00
63006;BME280;53704;52.532;6.426;2023-04-07T10:37:17;101718.31;;;9.53;100.00
63006;BME280;53704;52.532;6.426;2023-04-07T10:39:45;101719.28;;;9.43;100.00
63006;BME280;53704;52.532;6.426;2023-04-07T10:45:02;101720.66;;;9.68;100.00
63006;BME280;53704;52.532;6.426;2023-04-07T10:47:29;101736.00;;;9.87;100.00
63006;BME280;53704;52.532;6.426;2023-04-07T10:50:24;101729.00;;;9.74;100.00
63006;BME280;53704;52.532;6.426;2023-04-07T10:53:12;101728.53;;;9.69;100.00
63006;BME280;53704;52.532;6.426;2023-04-07T10:55:44;101732.25;;;9.68;100.00
63006;BME280;53704;52.532;6.426;2023-04-07T11:03:38;101734.06;;;10.08;100.00
63006;BME280;53704;52.532;6.426;2023-04-07T11:08:46;101742.53;;;10.04;100.00
63006;BME280;53704;52.532;6.426;2023-04-07T11:11:14;101731.69;;;9.74;100.00
63006;BME280;53704;52.532;6.426;2023-04-07T11:16:06;101740.59;;;10.16;100.00
63006;BME280;53704;52.532;6.426;2023-04-07T11:18:32;101746.47;;;9.49;100.00
63006;BME280;53704;52.532;6.426;2023-04-07T11:20:57;101746.25;;;10.12;100.00
63006;BME280;53704;52.532;6.426;2023-04-07T11:23:23;101749.63;;;10.14;100.00
63006;BME280;53704;52.532;6.426;2023-04-07T11:25:59;101753.91;;;10.27;100.00
63006;BME280;53704;52.532;6.426;2023-04-07T11:28:28;101754.31;;;10.03;100.00
63006;BME280;53704;52.532;6.426;2023-04-07T11:30:55;101754.19;;;10.24;100.00
63006;BME280;53704;52.532;6.426;2023-04-07T11:33:25;101755.03;;;10.14;100.00
63006;BME280;53704;52.532;6.426;2023-04-07T11:35:59;101749.94;;;9.71;100.00
63006;BME280;53704;52.532;6.426;2023-04-07T11:38:26;101759.69;;;9.72;100.00
63006;BME280;53704;52.532;6.426;2023-04-07T11:40:53;101768.09;;;9.48;100.00
63006;BME280;53704;52.532;6.426;2023-04-07T11:45:45;101770.91;;;10.27;100.00
63006;BME280;53704;52.532;6.426;2023-04-07T11:48:28;101767.56;;;10.55;100.00
63006;BME280;53704;52.532;6.426;2023-04-07T11:50:54;101769.28;;;10.65;100.00
63006;BME280;53704;52.532;6.426;2023-04-07T11:53:31;101778.13;;;10.27;100.00
63006;BME280;53704;52.532;6.426;2023-04-07T11:56:00;101775.84;;;10.12;100.00
63006;BME280;53704;52.532;6.426;2023-04-07T11:58:25;101774.88;;;10.23;100.00
63006;BME280;53704;52.532;6.426;2023-04-07T12:00:55;101777.09;;;10.08;100.00
63006;BME280;53704;52.532;6.426;2023-04-07T12:03:21;101773.78;;;10.36;100.00
63006;BME280;53704;52.532;6.426;2023-04-07T12:05:47;101784.50;;;10.26;100.00
63006;BME280;53704;52.532;6.426;2023-04-07T12:08:14;101783.72;;;10.55;100.00
63006;BME280;53704;52.532;6.426;2023-04-07T12:10:41;101789.44;;;10.61;100.00
63006;BME280;53704;52.532;6.426;2023-04-07T12:13:07;101786.28;;;10.56;100.00
63006;BME280;53704;52.532;6.426;2023-04-07T12:15:34;101782.03;;;11.02;100.00
63006;BME280;53704;52.532;6.426;2023-04-07T12:18:01;101785.88;;;11.00;100.00
63006;BME280;53704;52.532;6.426;2023-04-07T12:20:27;101786.72;;;10.91;100.00
63006;BME280;53704;52.532;6.426;2023-04-07T12:22:52;101788.84;;;10.77;100.00
63006;BME280;53704;52.532;6.426;2023-04-07T12:25:18;101791.09;;;11.11;100.00
63006;BME280;53704;52.532;6.426;2023-04-07T12:27:43;101794.06;;;11.28;100.00
63006;BME280;53704;52.532;6.426;2023-04-07T12:30:09;101796.19;;;11.14;100.00
63006;BME280;53704;52.532;6.426;2023-04-07T12:32:35;101789.91;;;11.43;100.00
63006;BME280;53704;52.532;6.426;2023-04-07T12:35:01;101799.75;;;11.05;100.00
63006;BME280;53704;52.532;6.426;2023-04-07T12:37:27;101794.66;;;10.63;100.00
63006;BME280;53704;52.532;6.426;2023-04-07T12:39:52;101799.78;;;10.66;100.00
63006;BME280;53704;52.532;6.426;2023-04-07T12:42:18;101806.75;;;10.28;100.00
63006;BME280;53704;52.532;6.426;2023-04-07T12:44:43;101807.25;;;10.53;100.00
63006;BME280;53704;52.532;6.426;2023-04-07T12:47:09;101807.97;;;10.94;100.00
63006;BME280;53704;52.532;6.426;2023-04-07T12:49:36;101817.03;;;10.44;100.00
63006;BME280;53704;52.532;6.426;2023-04-07T12:52:02;101810.38;;;10.07;100.00
63006;BME280;53704;52.532;6.426;2023-04-07T12:54:27;101814.06;;;10.47;100.00
63006;BME280;53704;52.532;6.426;2023-04-07T12:56:53;101816.53;;;10.29;100.00
63006;BME280;53704;52.532;6.426;2023-04-07T12:59:18;101815.06;;;10.75;100.00
63006;BME280;53704;52.532;6.426;2023-04-07T13:01:44;101815.88;;;10.46;100.00
63006;BME280;53704;52.532;6.426;2023-04-07T13:04:10;101819.03;;;10.71;100.00
63006;BME280;53704;52.532;6.426;2023-04-07T13:06:36;101818.84;;;10.43;100.00
63006;BME280;53704;52.532;6.426;2023-04-07T13:09:02;101825.00;;;10.24;100.00